Terminal Aerodrome Forecast
Issued by NWS Huntsville, AL

Home | Current Version | Previous Version | Text Only | Print | Product List | Glossary On
Versions: 1 2 3 4 5 6 7 8 9 10 11 12 13 14 15 16 17 18 19 20 21
000
FTUS44 KHUN 011721
TAFHSV
TAF
KHSV 011721Z 0118/0218 21011KT P6SM SCT015 OVC040
     FM012000 22010G15KT P6SM VCTS SCT030 BKN050CB
      TEMPO 0122/0201 4SM -TSRA BKN030CB
     FM020200 VRB04KT P6SM VCSH BKN030
     FM020900 17004KT P6SM VCSH OVC020
      TEMPO 0210/0214 5SM TSRA BR OVC025CB
     FM021400 20007KT 5SM TSRA OVC025CB=

USA.gov is the U.S. government's official web portal to all federal, state and local government web resources and services.